Time;durP1;ratioP1;P1;durP2;ratioP2;P2;SDS_P1;SDS_P2;PMS_P1;PMS_P2;Temp;Humidity;BMP_temperature;BMP_pressure;BME280_temperature;BME280_humidity;BME280_pressure;Samples;Min_cycle;Max_cycle;Signal;HPM_P1;HPM_P2
2023/05/31 00:01:55;;;;;;;6.63;2.72;;;;;;;;;;5065529;28;20049;-60
2023/05/31 00:04:21;;;;;;;8.68;2.47;;;;;;;;;;5060722;28;20527;-59
2023/05/31 00:06:48;;;;;;;3.30;2.47;;;;;;;;;;5052293;28;20487;-59
2023/05/31 00:09:14;;;;;;;5.80;2.13;;;;;;;;;;5046730;28;20050;-57
2023/05/31 00:11:40;;;;;;;3.33;2.25;;;;;;;;;;5062873;28;20060;-60
2023/05/31 00:14:07;;;;;;;2.53;2.20;;;;;;;;;;5059298;28;20056;-57
2023/05/31 00:16:33;;;;;;;4.72;2.85;;;;;;;;;;5057869;28;20107;-60
2023/05/31 00:19:03;;;;;;;4.50;2.40;;;;;;;;;;5063983;28;20187;-60
2023/05/31 00:21:30;;;;;;;2.58;2.03;;;;;;;;;;5057176;28;20056;-60
2023/05/31 00:23:56;;;;;;;6.22;3.08;;;;;;;;;;5064589;28;20053;-60
2023/05/31 00:26:22;;;;;;;2.85;2.33;;;;;;;;;;5063766;28;20123;-58
2023/05/31 00:28:49;;;;;;;3.40;2.17;;;;;;;;;;5061615;28;20558;-56
2023/05/31 00:31:15;;;;;;;4.05;2.13;;;;;;;;;;5065974;28;20057;-60
2023/05/31 00:33:45;;;;;;;8.43;3.30;;;;;;;;;;5049985;28;20077;-60
2023/05/31 00:36:11;;;;;;;5.85;2.75;;;;;;;;;;5056882;28;20408;-59
2023/05/31 00:38:37;;;;;;;3.10;2.25;;;;;;;;;;5055719;28;20061;-57
2023/05/31 00:41:04;;;;;;;9.88;2.33;;;;;;;;;;5064001;28;20083;-59
2023/05/31 00:43:30;;;;;;;5.93;2.67;;;;;;;;;;5063857;28;20965;-58
2023/05/31 00:45:57;;;;;;;2.42;1.90;;;;;;;;;;5059855;28;20132;-57
2023/05/31 00:48:23;;;;;;;4.50;2.10;;;;;;;;;;5046005;28;20112;-55
2023/05/31 00:50:50;;;;;;;4.00;1.90;;;;;;;;;;5046150;28;20112;-60
2023/05/31 00:53:18;;;;;;;6.50;2.90;;;;;;;;;;5061046;28;20053;-58
2023/05/31 00:55:45;;;;;;;3.03;1.92;;;;;;;;;;5061356;28;20057;-60
2023/05/31 00:58:11;;;;;;;3.67;2.58;;;;;;;;;;5065027;28;20409;-58
2023/05/31 01:00:38;;;;;;;4.88;2.50;;;;;;;;;;5063015;28;20469;-60
2023/05/31 01:03:04;;;;;;;3.85;2.17;;;;;;;;;;5062397;28;20151;-58
2023/05/31 01:05:31;;;;;;;3.92;2.75;;;;;;;;;;5058008;28;20059;-58
2023/05/31 01:07:57;;;;;;;3.85;2.22;;;;;;;;;;5045381;28;20057;-59
2023/05/31 01:10:24;;;;;;;2.95;1.95;;;;;;;;;;5045645;28;20104;-55
2023/05/31 01:13:04;;;;;;;4.30;2.80;;;;;;;;;;5058656;28;20164;-60
2023/05/31 01:15:38;;;;;;;4.22;2.38;;;;;;;;;;5065444;28;20053;-55
2023/05/31 01:18:25;;;;;;;7.68;2.58;;;;;;;;;;5065287;28;20052;-59
2023/05/31 01:20:53;;;;;;;6.25;3.05;;;;;;;;;;5064918;28;20072;-59
2023/05/31 01:23:26;;;;;;;4.65;2.25;;;;;;;;;;5052429;28;20096;-57
2023/05/31 01:26:17;;;;;;;2.30;2.10;;;;;;;;;;5045687;28;20434;-56
2023/05/31 01:28:45;;;;;;;3.55;2.47;;;;;;;;;;5064449;28;20053;-59
2023/05/31 01:31:14;;;;;;;4.53;2.50;;;;;;;;;;5064412;28;20049;-58
2023/05/31 01:33:41;;;;;;;4.10;2.38;;;;;;;;;;5053522;28;20107;-57
2023/05/31 01:36:07;;;;;;;2.30;1.75;;;;;;;;;;5064509;28;20055;-59
2023/05/31 01:38:34;;;;;;;5.68;2.58;;;;;;;;;;5046330;28;20061;-57
2023/05/31 01:41:01;;;;;;;4.25;2.40;;;;;;;;;;5049707;28;20053;-58
2023/05/31 01:43:28;;;;;;;6.50;2.67;;;;;;;;;;5064387;28;20144;-59
2023/05/31 01:45:55;;;;;;;5.32;2.03;;;;;;;;;;5059279;28;20060;-61
2023/05/31 01:48:22;;;;;;;3.10;1.77;;;;;;;;;;5060365;28;20045;-59
2023/05/31 01:50:49;;;;;;;3.85;2.50;;;;;;;;;;5065003;28;20103;-59
2023/05/31 01:53:16;;;;;;;4.00;2.17;;;;;;;;;;5063860;28;20057;-59
2023/05/31 01:55:43;;;;;;;2.85;2.22;;;;;;;;;;5058366;28;20049;-59
2023/05/31 01:58:10;;;;;;;3.83;2.78;;;;;;;;;;5052070;28;20735;-58
2023/05/31 02:00:36;;;;;;;6.22;2.80;;;;;;;;;;5064268;28;20053;-59
2023/05/31 02:03:04;;;;;;;8.00;3.05;;;;;;;;;;5061851;28;20557;-60
2023/05/31 02:05:30;;;;;;;4.18;2.55;;;;;;;;;;5064348;28;20138;-59
2023/05/31 02:07:56;;;;;;;4.10;2.88;;;;;;;;;;5060165;28;20052;-59
2023/05/31 02:10:23;;;;;;;6.55;2.88;;;;;;;;;;5065684;28;20053;-60
2023/05/31 02:12:50;;;;;;;4.28;2.75;;;;;;;;;;5056414;28;20057;-59
2023/05/31 02:15:19;;;;;;;5.47;3.38;;;;;;;;;;5057938;28;20056;-59
2023/05/31 02:17:46;;;;;;;5.85;2.63;;;;;;;;;;5063330;28;20057;-57
2023/05/31 02:20:13;;;;;;;3.33;2.38;;;;;;;;;;5063322;28;20502;-58
2023/05/31 02:22:40;;;;;;;3.78;2.65;;;;;;;;;;5094647;28;20106;-60
2023/05/31 02:25:08;;;;;;;3.83;2.60;;;;;;;;;;5061931;28;20344;-60
2023/05/31 02:27:34;;;;;;;4.93;2.83;;;;;;;;;;5064979;28;20095;-56
2023/05/31 02:30:01;;;;;;;3.63;2.22;;;;;;;;;;5062716;28;20052;-58
2023/05/31 02:32:27;;;;;;;6.22;3.20;;;;;;;;;;5062842;28;20075;-59
2023/05/31 02:34:54;;;;;;;3.80;3.05;;;;;;;;;;5057731;28;20050;-58
2023/05/31 02:37:20;;;;;;;4.07;2.63;;;;;;;;;;5048646;28;20144;-56
2023/05/31 02:39:48;;;;;;;4.38;2.55;;;;;;;;;;5052792;28;20372;-54
2023/05/31 02:42:14;;;;;;;5.93;2.78;;;;;;;;;;5058727;28;20052;-56
2023/05/31 02:44:41;;;;;;;4.38;2.47;;;;;;;;;;5058810;28;20772;-57
2023/05/31 02:47:07;;;;;;;3.75;2.42;;;;;;;;;;5061881;28;20503;-58
2023/05/31 02:49:34;;;;;;;5.03;2.92;;;;;;;;;;5061883;28;20060;-57
2023/05/31 02:52:00;;;;;;;4.20;3.13;;;;;;;;;;5063524;28;20145;-59
2023/05/31 02:54:27;;;;;;;5.53;2.97;;;;;;;;;;5062132;28;20052;-60
2023/05/31 02:56:53;;;;;;;4.97;3.40;;;;;;;;;;5064381;28;20064;-58
2023/05/31 02:59:20;;;;;;;4.07;2.58;;;;;;;;;;5058969;28;20541;-58
2023/05/31 03:01:46;;;;;;;4.05;2.85;;;;;;;;;;5071530;28;20044;-59
2023/05/31 03:04:12;;;;;;;4.05;2.50;;;;;;;;;;5061326;28;20053;-59
2023/05/31 03:06:39;;;;;;;5.93;3.15;;;;;;;;;;5063466;28;20494;-55
2023/05/31 03:09:07;;;;;;;5.40;3.17;;;;;;;;;;5062185;28;20057;-59
2023/05/31 03:11:33;;;;;;;4.30;3.05;;;;;;;;;;5062819;28;20118;-58
2023/05/31 03:14:00;;;;;;;4.68;2.97;;;;;;;;;;5062993;28;20087;-59
2023/05/31 03:16:28;;;;;;;6.97;3.13;;;;;;;;;;5060957;28;20139;-60
2023/05/31 03:18:55;;;;;;;3.67;2.80;;;;;;;;;;5042999;28;20533;-60
2023/05/31 03:21:21;;;;;;;5.70;2.80;;;;;;;;;;5043857;28;20053;-59
2023/05/31 03:23:47;;;;;;;4.70;3.25;;;;;;;;;;5052415;28;20403;-59
2023/05/31 03:26:14;;;;;;;6.20;3.25;;;;;;;;;;5062676;28;20075;-60
2023/05/31 03:28:40;;;;;;;4.25;2.70;;;;;;;;;;5061769;28;20064;-59
2023/05/31 03:31:07;;;;;;;5.65;3.42;;;;;;;;;;5046112;28;20054;-59
2023/05/31 03:33:35;;;;;;;5.55;3.28;;;;;;;;;;5041679;28;20080;-60
2023/05/31 03:36:01;;;;;;;6.47;3.17;;;;;;;;;;5058827;28;20056;-59
2023/05/31 03:38:28;;;;;;;10.90;3.63;;;;;;;;;;5063096;28;20640;-58
2023/05/31 03:40:55;;;;;;;7.28;3.20;;;;;;;;;;5063230;28;21063;-56
2023/05/31 03:43:21;;;;;;;4.97;3.08;;;;;;;;;;5061976;28;20888;-58
2023/05/31 03:45:47;;;;;;;5.53;3.30;;;;;;;;;;5057201;28;20095;-58
2023/05/31 03:48:14;;;;;;;5.95;3.00;;;;;;;;;;5061814;28;20140;-60
2023/05/31 03:50:40;;;;;;;7.00;4.25;;;;;;;;;;5061717;28;20049;-59
2023/05/31 03:53:07;;;;;;;6.75;3.28;;;;;;;;;;5043156;28;20057;-59
2023/05/31 03:55:33;;;;;;;4.60;3.15;;;;;;;;;;5054737;28;20474;-60
2023/05/31 03:58:00;;;;;;;5.47;3.42;;;;;;;;;;5046356;28;20057;-59
2023/05/31 04:00:26;;;;;;;6.20;3.13;;;;;;;;;;5046963;28;20053;-59
2023/05/31 04:02:53;;;;;;;4.80;3.08;;;;;;;;;;5049817;28;20085;-60
2023/05/31 04:05:30;;;;;;;4.82;3.00;;;;;;;;;;5051602;28;20063;-56
2023/05/31 04:07:57;;;;;;;5.85;3.35;;;;;;;;;;5062380;28;20525;-60
2023/05/31 04:10:23;;;;;;;5.70;3.30;;;;;;;;;;5060278;28;20056;-59
2023/05/31 04:12:50;;;;;;;5.55;3.33;;;;;;;;;;5050693;28;20546;-58
2023/05/31 04:15:16;;;;;;;5.07;3.20;;;;;;;;;;5060230;28;20057;-59
2023/05/31 04:17:43;;;;;;;5.43;3.47;;;;;;;;;;5062571;28;20559;-58
2023/05/31 04:20:09;;;;;;;7.28;3.65;;;;;;;;;;5045333;28;20054;-58
2023/05/31 04:22:36;;;;;;;7.13;4.10;;;;;;;;;;5056789;28;20057;-59
2023/05/31 04:25:02;;;;;;;7.07;3.75;;;;;;;;;;5042033;28;20060;-59
2023/05/31 04:27:30;;;;;;;7.53;3.60;;;;;;;;;;5064111;28;20045;-58
2023/05/31 04:29:57;;;;;;;5.47;3.30;;;;;;;;;;5062798;28;20147;-60
2023/05/31 04:32:24;;;;;;;9.38;3.80;;;;;;;;;;5065057;28;20049;-60
2023/05/31 04:34:57;;;;;;;6.95;3.65;;;;;;;;;;5062185;28;20495;-59
2023/05/31 04:37:26;;;;;;;8.63;3.88;;;;;;;;;;5059859;28;20128;-58
2023/05/31 04:39:52;;;;;;;6.85;4.32;;;;;;;;;;5052293;28;20059;-60
2023/05/31 04:42:19;;;;;;;7.63;3.85;;;;;;;;;;5059488;28;20057;-59
2023/05/31 04:44:45;;;;;;;7.53;4.10;;;;;;;;;;5064082;28;20143;-58
2023/05/31 04:47:12;;;;;;;6.18;3.92;;;;;;;;;;5061660;28;20056;-59
2023/05/31 04:49:38;;;;;;;4.75;3.25;;;;;;;;;;5062994;28;20052;-59
2023/05/31 04:52:20;;;;;;;5.80;3.83;;;;;;;;;;5064899;28;20060;-60
2023/05/31 04:54:46;;;;;;;6.60;3.95;;;;;;;;;;5065493;28;20590;-60
2023/05/31 04:57:13;;;;;;;7.20;3.72;;;;;;;;;;5062090;28;20166;-58
2023/05/31 04:59:39;;;;;;;8.18;4.03;;;;;;;;;;5056124;28;20139;-58
2023/05/31 05:02:05;;;;;;;6.28;4.15;;;;;;;;;;5058420;28;20052;-57
2023/05/31 05:04:32;;;;;;;8.52;4.28;;;;;;;;;;5063760;28;20110;-60
2023/05/31 05:06:58;;;;;;;8.88;4.13;;;;;;;;;;5064405;28;20057;-59
2023/05/31 05:09:25;;;;;;;5.28;3.40;;;;;;;;;;5064716;28;20057;-58
2023/05/31 05:11:53;;;;;;;6.15;3.95;;;;;;;;;;5064743;28;20183;-59
2023/05/31 05:14:20;;;;;;;6.68;4.00;;;;;;;;;;5064309;28;20542;-60
2023/05/31 05:16:46;;;;;;;6.55;3.38;;;;;;;;;;5063656;28;20053;-59
2023/05/31 05:19:13;;;;;;;6.38;3.97;;;;;;;;;;5062190;28;20481;-60
2023/05/31 05:21:39;;;;;;;7.05;3.38;;;;;;;;;;5051509;28;20112;-58
2023/05/31 05:24:06;;;;;;;7.25;4.35;;;;;;;;;;5060593;28;20140;-59
2023/05/31 05:26:33;;;;;;;9.13;4.25;;;;;;;;;;5064149;28;20080;-59
2023/05/31 05:28:59;;;;;;;8.63;4.18;;;;;;;;;;5060233;28;20119;-55
2023/05/31 05:31:25;;;;;;;13.40;4.18;;;;;;;;;;5057363;28;20309;-58
2023/05/31 05:33:52;;;;;;;10.48;4.03;;;;;;;;;;5063476;28;20049;-60
2023/05/31 05:36:19;;;;;;;7.60;4.63;;;;;;;;;;5064616;28;20084;-56
2023/05/31 05:38:45;;;;;;;13.75;4.65;;;;;;;;;;5048303;28;20056;-58
2023/05/31 05:41:12;;;;;;;6.65;3.95;;;;;;;;;;5052151;28;20150;-58
2023/05/31 05:43:41;;;;;;;6.63;3.35;;;;;;;;;;5059207;28;20053;-57
2023/05/31 05:46:08;;;;;;;9.15;4.03;;;;;;;;;;5064491;28;20048;-58
2023/05/31 07:12:54;;;;;;;;;;;;;;;;;;5061776;28;20388;-49
2023/05/31 07:15:21;;;;;;;5.72;3.80;;;;;;;;;;5058070;28;45874;-54
2023/05/31 07:17:47;;;;;;;9.20;4.63;;;;;;;;;;5059240;28;20061;-41
2023/05/31 07:20:13;;;;;;;7.93;4.45;;;;;;;;;;5059838;28;20055;-57
2023/05/31 07:22:40;;;;;;;10.85;4.70;;;;;;;;;;5059256;28;20053;-57
2023/05/31 07:25:06;;;;;;;8.38;4.05;;;;;;;;;;5053840;28;20120;-57
2023/05/31 07:27:33;;;;;;;7.97;4.90;;;;;;;;;;5040338;28;20054;-56
2023/05/31 07:29:59;;;;;;;7.75;4.80;;;;;;;;;;5039814;28;20078;-55
2023/05/31 07:32:25;;;;;;;5.72;4.03;;;;;;;;;;5040666;28;20381;-57
2023/05/31 07:34:52;;;;;;;11.75;4.82;;;;;;;;;;5042639;28;20515;-57
2023/05/31 07:37:29;;;;;;;10.80;4.60;;;;;;;;;;5060133;28;20061;-55
2023/05/31 07:39:56;;;;;;;8.30;4.22;;;;;;;;;;5060540;28;20070;-58
2023/05/31 07:42:22;;;;;;;5.60;4.05;;;;;;;;;;5060058;28;20053;-56
2023/05/31 07:44:49;;;;;;;6.97;4.70;;;;;;;;;;5092136;28;20103;-58
2023/05/31 07:47:15;;;;;;;8.60;4.47;;;;;;;;;;5060115;28;20060;-57
2023/05/31 07:49:42;;;;;;;8.57;4.93;;;;;;;;;;5094375;28;20045;-56
2023/05/31 07:52:08;;;;;;;9.00;4.93;;;;;;;;;;5060448;28;20041;-58
2023/05/31 07:54:35;;;;;;;10.70;5.13;;;;;;;;;;5060435;28;20057;-57
2023/05/31 07:57:01;;;;;;;7.90;4.85;;;;;;;;;;5060719;28;20154;-56
2023/05/31 07:59:28;;;;;;;7.00;3.80;;;;;;;;;;5061856;28;20569;-58
2023/05/31 08:01:54;;;;;;;8.77;4.38;;;;;;;;;;5061536;28;20053;-57
2023/05/31 08:04:20;;;;;;;12.95;4.63;;;;;;;;;;5060150;28;20054;-56
2023/05/31 08:06:47;;;;;;;7.38;4.45;;;;;;;;;;5059146;28;20548;-58
2023/05/31 08:09:13;;;;;;;9.63;5.00;;;;;;;;;;5044185;28;20051;-58
2023/05/31 08:11:40;;;;;;;6.10;3.85;;;;;;;;;;5058885;28;20061;-58
2023/05/31 08:14:06;;;;;;;9.82;4.55;;;;;;;;;;5059029;28;20131;-58
2023/05/31 08:16:33;;;;;;;5.20;3.83;;;;;;;;;;5058317;28;20057;-56
2023/05/31 08:19:00;;;;;;;12.05;4.18;;;;;;;;;;5059584;28;20053;-56
2023/05/31 08:21:26;;;;;;;6.60;3.95;;;;;;;;;;5059642;28;20140;-55
2023/05/31 08:23:53;;;;;;;8.10;4.22;;;;;;;;;;5048238;28;20065;-57
2023/05/31 08:26:20;;;;;;;9.15;4.70;;;;;;;;;;5045258;28;20057;-56
2023/05/31 08:28:46;;;;;;;11.52;5.07;;;;;;;;;;5026066;28;20565;-57
2023/05/31 08:31:12;;;;;;;9.00;5.28;;;;;;;;;;5035481;28;20057;-58
2023/05/31 08:33:51;;;;;;;5.72;3.85;;;;;;;;;;5046295;28;20063;-57
2023/05/31 08:36:18;;;;;;;7.47;4.50;;;;;;;;;;5045487;28;20080;-56
2023/05/31 08:38:44;;;;;;;8.98;4.97;;;;;;;;;;5045622;28;20053;-56
2023/05/31 08:41:11;;;;;;;8.60;4.57;;;;;;;;;;5045504;28;20084;-58
2023/05/31 08:43:38;;;;;;;6.18;3.55;;;;;;;;;;5045512;28;20909;-58
2023/05/31 08:46:06;;;;;;;10.30;4.13;;;;;;;;;;5031641;28;20566;-57
2023/05/31 08:48:49;;;;;;;9.27;4.50;;;;;;;;;;5042850;28;20045;-58
2023/05/31 08:51:16;;;;;;;5.68;3.70;;;;;;;;;;5041011;28;20065;-58
2023/05/31 08:53:42;;;;;;;7.82;3.92;;;;;;;;;;5047667;28;20092;-58
2023/05/31 08:56:10;;;;;;;6.32;3.38;;;;;;;;;;5044646;28;20173;-57
2023/05/31 08:58:37;;;;;;;5.47;3.85;;;;;;;;;;5042739;28;20103;-58
2023/05/31 09:01:03;;;;;;;4.80;3.30;;;;;;;;;;5031392;28;20577;-58
2023/05/31 09:03:31;;;;;;;7.53;4.25;;;;;;;;;;5044177;28;20739;-57
2023/05/31 09:05:57;;;;;;;8.27;3.75;;;;;;;;;;5045043;28;20056;-57
2023/05/31 09:08:24;;;;;;;4.75;3.33;;;;;;;;;;5043785;28;20056;-57
2023/05/31 09:10:51;;;;;;;10.45;3.83;;;;;;;;;;5043477;28;20131;-58
2023/05/31 09:13:18;;;;;;;7.45;4.10;;;;;;;;;;5044892;28;20151;-58
2023/05/31 09:15:46;;;;;;;6.63;3.45;;;;;;;;;;5043525;28;20045;-55
2023/05/31 09:18:16;;;;;;;6.90;4.07;;;;;;;;;;5045040;28;20530;-58
2023/05/31 09:20:45;;;;;;;8.68;4.75;;;;;;;;;;5043604;28;20057;-56
2023/05/31 09:23:16;;;;;;;7.65;3.85;;;;;;;;;;5043976;28;20049;-57
2023/05/31 09:25:46;;;;;;;6.40;3.70;;;;;;;;;;5044251;28;20053;-59
2023/05/31 09:28:13;;;;;;;9.60;3.85;;;;;;;;;;5045429;28;20049;-57
2023/05/31 09:30:40;;;;;;;7.25;4.25;;;;;;;;;;5043919;28;20057;-59
2023/05/31 09:33:07;;;;;;;10.07;3.70;;;;;;;;;;5043433;28;20457;-59
2023/05/31 09:35:34;;;;;;;6.85;4.03;;;;;;;;;;5041859;28;20474;-59
2023/05/31 09:38:05;;;;;;;5.50;3.50;;;;;;;;;;5043804;28;20053;-59
2023/05/31 09:40:32;;;;;;;6.25;3.53;;;;;;;;;;5044390;28;20068;-58
2023/05/31 09:43:01;;;;;;;7.03;3.40;;;;;;;;;;5025110;28;20097;-59
2023/05/31 09:45:30;;;;;;;6.68;3.60;;;;;;;;;;5029732;28;20837;-59
2023/05/31 09:47:57;;;;;;;6.10;2.88;;;;;;;;;;5030427;28;20060;-59
2023/05/31 10:22:54;;;;;;;6.43;4.18;;;;;;;;;;5136541;27;21111;-52
2023/05/31 10:25:28;;;;;;;7.30;4.18;;;;;;;;;;5130944;27;20087;-52
2023/05/31 10:27:57;;;;;;;6.55;3.40;;;;;;;;;;5117392;27;20058;-51
2023/05/31 10:30:26;;;;;;;5.63;3.75;;;;;;;;;;5123670;27;20141;-52
2023/05/31 10:33:07;;;;;;;4.68;3.33;;;;;;;;;;5138851;27;20075;-51
2023/05/31 10:35:33;;;;;;;5.47;3.40;;;;;;;;;;5137013;27;20160;-50
2023/05/31 10:38:01;;;;;;;5.30;3.08;;;;;;;;;;5138190;27;20097;-50
2023/05/31 10:40:37;;;;;;;6.88;3.17;;;;;;;;;;5139612;27;20054;-54
2023/05/31 10:43:08;;;;;;;6.35;3.30;;;;;;;;;;5139981;27;20055;-52
2023/05/31 10:45:40;;;;;;;4.78;2.80;;;;;;;;;;5141316;27;20146;-51
2023/05/31 10:48:26;;;;;;;5.30;2.90;;;;;;;;;;5137933;27;20055;-53
2023/05/31 10:50:52;;;;;;;4.65;2.72;;;;;;;;;;5121848;27;20051;-49
2023/05/31 10:53:18;;;;;;;4.78;3.30;;;;;;;;;;5138533;27;20467;-53
2023/05/31 10:55:46;;;;;;;5.00;2.90;;;;;;;;;;5140390;27;20077;-50
2023/05/31 10:58:39;;;;;;;6.47;3.08;;;;;;;;;;5140388;27;20043;-51
2023/05/31 11:01:07;;;;;;;6.07;3.08;;;;;;;;;;5115175;27;20043;-50
2023/05/31 11:03:34;;;;;;;4.47;3.03;;;;;;;;;;5146693;27;20094;-51
2023/05/31 11:06:06;;;;;;;6.00;2.80;;;;;;;;;;5141368;27;20531;-50
2023/05/31 11:08:32;;;;;;;4.75;2.80;;;;;;;;;;5137538;27;20135;-53
2023/05/31 11:11:17;;;;;;;5.15;3.15;;;;;;;;;;5135314;27;20051;-51
2023/05/31 11:13:58;;;;;;;4.72;3.17;;;;;;;;;;5128632;27;20502;-52
2023/05/31 11:16:25;;;;;;;5.13;3.08;;;;;;;;;;5140106;27;20151;-52
2023/05/31 11:19:01;;;;;;;7.97;3.03;;;;;;;;;;5140687;27;20105;-55
2023/05/31 11:21:49;;;;;;;3.47;2.60;;;;;;;;;;5140354;27;20142;-58
2023/05/31 11:24:28;;;;;;;5.35;3.17;;;;;;;;;;5135307;27;20052;-57
2023/05/31 11:26:56;;;;;;;5.43;3.13;;;;;;;;;;5140097;27;20146;-57
2023/05/31 11:29:24;;;;;;;5.72;3.13;;;;;;;;;;5137270;27;20058;-58
2023/05/31 11:31:50;;;;;;;4.00;2.85;;;;;;;;;;5135391;27;20051;-55
2023/05/31 11:34:28;;;;;;;4.20;2.80;;;;;;;;;;5124559;27;20059;-57
2023/05/31 11:36:59;;;;;;;4.93;2.47;;;;;;;;;;5124427;27;20070;-57
2023/05/31 11:39:26;;;;;;;4.57;2.53;;;;;;;;;;5124998;27;20051;-53
2023/05/31 11:41:53;;;;;;;4.95;2.40;;;;;;;;;;5124907;27;20052;-57
2023/05/31 11:44:23;;;;;;;2.42;2.05;;;;;;;;;;5126888;27;20551;-55
2023/05/31 11:46:54;;;;;;;5.47;2.38;;;;;;;;;;5125895;27;20051;-58
2023/05/31 11:49:21;;;;;;;3.40;2.30;;;;;;;;;;5126585;27;20059;-56
2023/05/31 11:51:48;;;;;;;3.88;2.40;;;;;;;;;;5126227;27;20109;-57
2023/05/31 11:54:14;;;;;;;3.60;2.08;;;;;;;;;;5124940;27;20075;-57
2023/05/31 11:56:41;;;;;;;5.85;2.50;;;;;;;;;;5112541;27;20090;-56
2023/05/31 11:59:08;;;;;;;6.38;2.58;;;;;;;;;;5111496;27;20126;-55
2023/05/31 12:01:35;;;;;;;3.80;2.17;;;;;;;;;;5112299;27;20557;-55
2023/05/31 12:04:01;;;;;;;4.28;1.90;;;;;;;;;;5123733;27;20146;-55
2023/05/31 12:06:28;;;;;;;4.55;1.85;;;;;;;;;;5108392;27;20504;-54
2023/05/31 12:08:54;;;;;;;3.22;2.30;;;;;;;;;;5120654;27;20047;-56
2023/05/31 12:11:25;;;;;;;2.05;1.85;;;;;;;;;;5121547;27;20055;-55
2023/05/31 12:13:54;;;;;;;5.97;2.40;;;;;;;;;;5124587;27;20060;-54
2023/05/31 12:16:21;;;;;;;2.67;1.90;;;;;;;;;;5112004;27;20102;-56
2023/05/31 12:18:48;;;;;;;6.25;2.10;;;;;;;;;;5119588;27;20097;-55
2023/05/31 12:21:15;;;;;;;3.90;2.45;;;;;;;;;;5115976;27;20056;-55
2023/05/31 12:23:52;;;;;;;3.25;1.88;;;;;;;;;;5125512;27;20059;-54
2023/05/31 12:26:19;;;;;;;4.28;1.90;;;;;;;;;;5121270;27;20181;-56
2023/05/31 12:28:45;;;;;;;3.78;1.83;;;;;;;;;;5123433;27;20148;-55
2023/05/31 12:31:18;;;;;;;2.63;1.80;;;;;;;;;;5122435;27;20052;-54
2023/05/31 12:33:50;;;;;;;6.57;2.35;;;;;;;;;;5118809;27;20058;-57
2023/05/31 12:36:17;;;;;;;4.50;1.85;;;;;;;;;;5118202;27;20692;-57
2023/05/31 12:38:43;;;;;;;3.50;2.17;;;;;;;;;;5125440;27;20055;-57
2023/05/31 12:41:09;;;;;;;11.30;1.83;;;;;;;;;;5123348;27;20127;-56
2023/05/31 12:43:36;;;;;;;6.15;1.95;;;;;;;;;;5124587;27;20487;-55
2023/05/31 12:46:02;;;;;;;2.97;2.00;;;;;;;;;;5113073;27;20054;-55
2023/05/31 12:48:30;;;;;;;3.58;1.85;;;;;;;;;;5126543;27;20096;-57
2023/05/31 12:50:57;;;;;;;4.53;2.13;;;;;;;;;;5117481;27;20055;-56
2023/05/31 12:53:25;;;;;;;3.72;2.15;;;;;;;;;;5126221;27;20061;-56
2023/05/31 12:55:51;;;;;;;4.18;1.90;;;;;;;;;;5125083;27;20043;-54
2023/05/31 12:58:18;;;;;;;2.40;1.83;;;;;;;;;;5123945;27;20063;-55
2023/05/31 13:00:44;;;;;;;3.08;1.88;;;;;;;;;;5125745;27;20055;-56
2023/05/31 13:03:13;;;;;;;3.55;2.25;;;;;;;;;;5124824;27;20052;-55
2023/05/31 13:05:41;;;;;;;4.90;2.83;;;;;;;;;;5125043;27;20493;-54
2023/05/31 13:08:07;;;;;;;4.03;2.30;;;;;;;;;;5111386;27;20068;-56
2023/05/31 13:10:36;;;;;;;3.03;1.67;;;;;;;;;;5125016;27;20043;-55
2023/05/31 13:13:03;;;;;;;3.78;2.63;;;;;;;;;;5118204;27;20055;-56
2023/05/31 13:15:30;;;;;;;6.00;3.42;;;;;;;;;;5122921;27;20106;-57
2023/05/31 13:17:56;;;;;;;4.15;3.20;;;;;;;;;;5127988;27;20524;-57
2023/05/31 13:20:23;;;;;;;4.15;3.10;;;;;;;;;;5126921;27;20055;-58
2023/05/31 13:22:49;;;;;;;6.68;3.17;;;;;;;;;;5124942;27;20149;-56
2023/05/31 13:25:16;;;;;;;6.60;3.25;;;;;;;;;;5125579;27;20056;-54
2023/05/31 13:27:42;;;;;;;4.30;2.60;;;;;;;;;;5124853;27;20536;-57
2023/05/31 13:30:10;;;;;;;4.97;2.67;;;;;;;;;;5125454;27;20060;-56
2023/05/31 13:32:36;;;;;;;4.60;3.08;;;;;;;;;;5123807;27;20551;-57
2023/05/31 13:35:04;;;;;;;3.03;2.72;;;;;;;;;;5124640;27;20127;-56
2023/05/31 13:37:30;;;;;;;5.00;3.15;;;;;;;;;;5128135;27;20052;-58
2023/05/31 13:39:57;;;;;;;5.82;3.22;;;;;;;;;;5122068;27;20155;-54
2023/05/31 13:42:24;;;;;;;6.68;3.22;;;;;;;;;;5114972;27;20143;-56
2023/05/31 13:44:53;;;;;;;7.15;3.20;;;;;;;;;;5125747;27;20047;-56
2023/05/31 13:47:20;;;;;;;6.07;3.30;;;;;;;;;;5118208;27;20129;-56
2023/05/31 13:49:46;;;;;;;4.40;3.22;;;;;;;;;;5113451;27;20954;-57
2023/05/31 13:52:13;;;;;;;8.30;3.38;;;;;;;;;;5123611;27;20048;-57
2023/05/31 13:54:40;;;;;;;6.47;3.22;;;;;;;;;;5123998;27;20051;-56
2023/05/31 13:57:07;;;;;;;9.43;3.70;;;;;;;;;;5120626;27;20540;-58
2023/05/31 13:59:33;;;;;;;3.17;2.72;;;;;;;;;;5121347;27;20047;-56
2023/05/31 14:02:00;;;;;;;4.60;3.15;;;;;;;;;;5123815;27;20054;-57
2023/05/31 14:04:26;;;;;;;3.55;2.80;;;;;;;;;;5109554;27;20135;-55
2023/05/31 14:06:53;;;;;;;7.15;3.45;;;;;;;;;;5116169;27;20102;-55
2023/05/31 14:09:20;;;;;;;7.43;3.15;;;;;;;;;;5116236;27;20051;-59
2023/05/31 14:11:46;;;;;;;5.25;3.20;;;;;;;;;;5123103;27;20047;-56
2023/05/31 14:14:13;;;;;;;6.78;3.00;;;;;;;;;;5123616;27;20047;-56
2023/05/31 14:16:40;;;;;;;6.35;3.03;;;;;;;;;;5116939;27;20429;-56
2023/05/31 14:19:06;;;;;;;6.72;3.58;;;;;;;;;;5123503;27;20202;-53
2023/05/31 14:21:33;;;;;;;5.45;3.13;;;;;;;;;;5121740;27;20150;-57
2023/05/31 14:23:59;;;;;;;8.20;3.05;;;;;;;;;;5120177;27;20142;-54
2023/05/31 14:26:26;;;;;;;7.32;3.60;;;;;;;;;;5122810;27;20208;-55
2023/05/31 14:28:53;;;;;;;8.07;4.07;;;;;;;;;;5105576;27;20060;-56
2023/05/31 14:31:19;;;;;;;5.50;3.10;;;;;;;;;;5121255;27;20915;-56
2023/05/31 14:33:46;;;;;;;4.55;3.03;;;;;;;;;;5122759;27;20101;-57
2023/05/31 14:36:12;;;;;;;7.35;2.97;;;;;;;;;;5087798;27;20536;-52
2023/05/31 14:38:39;;;;;;;5.35;3.22;;;;;;;;;;5118863;27;20083;-57
2023/05/31 14:41:05;;;;;;;8.85;3.88;;;;;;;;;;5121926;27;20132;-57
2023/05/31 14:43:32;;;;;;;6.35;3.70;;;;;;;;;;5115758;27;20591;-57
2023/05/31 14:45:58;;;;;;;6.47;3.17;;;;;;;;;;5122493;27;20151;-57
2023/05/31 14:48:25;;;;;;;4.55;3.70;;;;;;;;;;5117046;27;20055;-54
2023/05/31 14:50:51;;;;;;;6.00;3.22;;;;;;;;;;5115958;27;20604;-58
2023/05/31 14:53:17;;;;;;;6.97;2.97;;;;;;;;;;5121807;27;20113;-56
2023/05/31 14:55:44;;;;;;;4.32;3.30;;;;;;;;;;5122802;27;20505;-57
2023/05/31 14:58:11;;;;;;;4.05;2.95;;;;;;;;;;5122356;27;20052;-56
2023/05/31 15:00:37;;;;;;;8.73;3.58;;;;;;;;;;5119837;27;20108;-55
2023/05/31 15:03:04;;;;;;;5.97;3.22;;;;;;;;;;5126964;27;20051;-55
2023/05/31 15:05:30;;;;;;;5.78;3.65;;;;;;;;;;5121126;27;20056;-57
2023/05/31 15:07:57;;;;;;;4.75;3.05;;;;;;;;;;5112465;27;20609;-58
2023/05/31 15:10:26;;;;;;;6.00;2.97;;;;;;;;;;5126372;27;20523;-55
2023/05/31 15:12:53;;;;;;;6.70;3.78;;;;;;;;;;5132837;27;20134;-55
2023/05/31 15:15:19;;;;;;;4.10;3.63;;;;;;;;;;5117361;27;20063;-57
2023/05/31 15:17:46;;;;;;;7.50;4.20;;;;;;;;;;5137377;27;20083;-53
2023/05/31 15:20:13;;;;;;;5.57;3.53;;;;;;;;;;5126202;27;20571;-57
2023/05/31 18:07:52;;;;;;;4.45;3.03;;;;;;;;;;5098567;28;20424;-51
2023/05/31 18:10:19;;;;;;;3.42;2.90;;;;;;;;;;5100880;27;20498;-56
2023/05/31 18:12:45;;;;;;;7.55;3.25;;;;;;;;;;5089970;27;20057;-57
2023/05/31 18:15:12;;;;;;;6.78;3.67;;;;;;;;;;5098270;27;20513;-56
2023/05/31 18:17:40;;;;;;;3.83;2.90;;;;;;;;;;5104577;27;20466;-55
2023/05/31 18:20:06;;;;;;;5.95;3.22;;;;;;;;;;5091364;27;20060;-56
2023/05/31 18:22:34;;;;;;;8.02;4.15;;;;;;;;;;5095544;28;20052;-56
2023/05/31 18:25:01;;;;;;;5.47;3.95;;;;;;;;;;5099444;28;20052;-57
2023/05/31 18:27:27;;;;;;;9.25;4.82;;;;;;;;;;5099978;27;20052;-56
2023/05/31 18:29:54;;;;;;;5.55;4.68;;;;;;;;;;5086547;28;20048;-56
2023/05/31 18:32:20;;;;;;;8.55;6.00;;;;;;;;;;5099404;28;20056;-55
2023/05/31 18:34:46;;;;;;;12.70;7.50;;;;;;;;;;5096280;27;20106;-55
2023/05/31 18:37:16;;;;;;;10.90;5.90;;;;;;;;;;5097297;28;20056;-54
2023/05/31 18:39:42;;;;;;;18.38;10.23;;;;;;;;;;5099695;27;20142;-52
2023/05/31 18:42:09;;;;;;;7.72;5.63;;;;;;;;;;5099996;27;20173;-56
2023/05/31 18:44:36;;;;;;;4.28;3.30;;;;;;;;;;5095618;27;20048;-54
2023/05/31 18:47:02;;;;;;;5.07;3.45;;;;;;;;;;5089812;28;20056;-53
2023/05/31 18:49:29;;;;;;;3.40;2.88;;;;;;;;;;5097291;27;20060;-55
2023/05/31 18:51:57;;;;;;;4.43;2.80;;;;;;;;;;5100438;27;20413;-52
2023/05/31 18:54:23;;;;;;;5.20;3.30;;;;;;;;;;5099395;28;20056;-53
2023/05/31 18:56:51;;;;;;;4.57;3.20;;;;;;;;;;5100648;27;20048;-55
2023/05/31 18:59:18;;;;;;;6.32;3.50;;;;;;;;;;5088062;27;20132;-56
2023/05/31 19:01:44;;;;;;;5.72;2.92;;;;;;;;;;5081409;28;20171;-54
2023/05/31 19:04:10;;;;;;;4.53;2.50;;;;;;;;;;5086379;28;20877;-56
2023/05/31 19:06:37;;;;;;;3.33;2.55;;;;;;;;;;5099108;28;20118;-57
2023/05/31 19:09:04;;;;;;;5.53;3.03;;;;;;;;;;5097588;27;20091;-57
2023/05/31 19:11:31;;;;;;;7.15;3.50;;;;;;;;;;5082344;27;20123;-56
2023/05/31 19:13:57;;;;;;;3.83;2.65;;;;;;;;;;5100875;27;20895;-54
2023/05/31 19:16:24;;;;;;;3.20;2.85;;;;;;;;;;5087599;27;20522;-56
2023/05/31 19:18:51;;;;;;;3.80;2.35;;;;;;;;;;5072800;28;20207;-53
2023/05/31 19:21:18;;;;;;;4.47;3.10;;;;;;;;;;5069531;28;20044;-56
2023/05/31 19:23:47;;;;;;;4.35;3.00;;;;;;;;;;5087991;28;20056;-57
2023/05/31 19:26:17;;;;;;;6.35;3.45;;;;;;;;;;5085032;28;20056;-57
2023/05/31 19:28:43;;;;;;;5.82;2.75;;;;;;;;;;5084976;28;20107;-57